Savery, Wyoming
Current Conditions -  °F | °C
As of 9:35 PM on Saturday 22 Nov 2014 (Local Time) from KDWX Reporting Station
Overcast Overcast  
Wind Chill: 23°   Ceiling: 7000
Heat Index: 33°   Visibility: 10mi
Dew Point: 31°   Wind: 16mph
Humidity: 91%   Direction: 220°SW
Pressure: 29.76"   Gusts: 24mph
Location:  41.02°N, 107.45°W
Report Text: KDWX 230435Z AUTO 22014G21KT 10SM SCT060 OVC070 01/00 A2976 RMK AO2 T00081005
Loading
Personal Weather Stations






























Interactive Weather Map New forecast layout! Learn more

10-Day Weather Forecast

Advertisements
Track Severe Weather on mobile